Flight Track Log - Related Links

Times and Time Zones

All times are in EDT time to prevent confusion due to time zone crossing. See the CTL312 flight status page for this flight to view local times or setup timezone preferences in your user account.

Time Position Orientation Groundspeed Altitude Reporting Facility
EDT Latitude Longitude Course Direction KTS MPH feet Rate Location/Type
Thu 06:36:20 PM 41.5167 -81.7061 300° West 113 130 1,200  Level Cleveland Center
Thu 06:36:45 PM 41.5228 -81.7203 300° West 118 136 1,500 593 Climbing Cleveland Center
Thu 06:37:51 PM 41.5453 -81.7706 301° West 144 166 2,100 595 Climbing Cleveland Center
Thu 06:38:46 PM 41.5489 -81.8094 277° West 137 158 2,700 576 Climbing Cleveland Center
Thu 06:40:48 PM 41.5394 -81.9203 264° West 141 162 3,800 459 Climbing Cleveland Center
Thu 06:41:49 PM 41.5347 -81.9728 263° West 145 167 4,100 135 Climbing Cleveland Center
Thu 06:43:01 PM 41.5233 -82.0336 256° West 141 162 4,100  Level Cleveland Center
Thu 06:43:56 PM 41.5186 -82.0833 263° West 144 166 4,100  Level Cleveland Center
Thu 06:44:56 PM 41.4869 -82.1189 220° Southwest 154 177 4,100  Level Cleveland Center
Thu 06:47:15 PM 41.4192 -82.1967 221° Southwest 152 175 4,100  Level Indianapolis Center
Thu 06:48:17 PM 41.3883 -82.2369 224° Southwest 153 176 4,100  Level Indianapolis Center
Thu 06:49:19 PM 41.3500 -82.2822 222° Southwest 155 178 4,100 -48 Level Indianapolis Center
Thu 06:50:21 PM 41.3150 -82.3219 220° Southwest 160 184 4,000 -97 Descending Indianapolis Center
Thu 06:51:23 PM 41.2814 -82.3600 220° Southwest 159 183 3,900  Descending Indianapolis Center
Thu 06:52:25 PM 41.2478 -82.3972 220° Southwest 157 181 4,000 97 Climbing Indianapolis Center
Thu 06:53:27 PM 41.2153 -82.4358 222° Southwest 156 180 4,100  Climbing Indianapolis Center
Thu 06:54:29 PM 41.1831 -82.4750 222° Southwest 156 180 4,000 -48 Descending Indianapolis Center
Thu 06:55:31 PM 41.1508 -82.5125 221° Southwest 155 178 4,000  Level Indianapolis Center
Thu 06:56:33 PM 41.1117 -82.5550 219° Southwest 154 177 4,000 48 Level Indianapolis Center
Thu 06:57:35 PM 41.0786 -82.5939 222° Southwest 156 180 4,100  Climbing Indianapolis Center
Thu 06:58:37 PM 41.0461 -82.6317 221° Southwest 155 178 4,000 -48 Descending Indianapolis Center
Thu 06:59:39 PM 41.0128 -82.6706 221° Southwest 156 180 4,000  Level Indianapolis Center
Thu 07:00:41 PM 40.9797 -82.7069 220° Southwest 156 180 4,000  Level Indianapolis Center
Thu 07:01:43 PM 40.9489 -82.7464 224° Southwest 155 178 4,000  Level Indianapolis Center
Thu 07:02:45 PM 40.9153 -82.7833 220° Southwest 154 177 4,000  Level Indianapolis Center
Thu 07:03:47 PM 40.8769 -82.8258 220° Southwest 154 177 4,000  Level Indianapolis Center
Thu 07:04:49 PM 40.8428 -82.8631 219° Southwest 155 178 4,000  Level Indianapolis Center
Thu 07:05:52 PM 40.8119 -82.9022 224° Southwest 155 178 4,000 -48 Level Indianapolis Center
Thu 07:06:53 PM 40.7797 -82.9419 223° Southwest 156 180 3,900 -49 Descending Indianapolis Center
Thu 07:07:55 PM 40.7478 -82.9808 223° Southwest 156 180 3,900  Level Indianapolis Center
Thu 07:08:57 PM 40.7144 -83.0189 221° Southwest 156 180 3,900 49 Level Indianapolis Center
Thu 07:09:58 PM 40.6822 -83.0586 223° Southwest 157 181 4,000 49 Climbing Indianapolis Center
Thu 07:11:00 PM 40.6492 -83.0967 221° Southwest 157 181 4,000  Level Indianapolis Center
Thu 07:12:02 PM 40.6094 -83.1428 221° Southwest 159 183 4,000 48 Level Indianapolis Center
Thu 07:13:04 PM 40.5750 -83.1811 220° Southwest 160 184 4,100 48 Climbing Indianapolis Center
Thu 07:14:06 PM 40.5425 -83.2206 223° Southwest 159 183 4,100  Level Indianapolis Center
Thu 07:15:08 PM 40.5092 -83.2581 221° Southwest 158 182 4,100 -55 Level Indianapolis Center
Thu 07:15:55 PM 40.4808 -83.2886 219° Southwest 157 181 4,000  Descending Indianapolis Center
Thu 07:16:50 PM 40.4514 -83.3233 222° Southwest 157 181 4,100 79 Climbing Indianapolis Center
Thu 07:17:11 PM 40.4411 -83.3314 211° Southwest 157 181 4,100  Level Indianapolis Center
Thu 07:17:51 PM 40.4194 -83.3606 226° Southwest 157 181 4,100  Level Indianapolis Center
Thu 07:18:13 PM 40.4081 -83.3694 211° Southwest 158 182 4,100  Level Indianapolis Center
Thu 07:18:52 PM 40.3831 -83.4000 223° Southwest 156 180 4,100  Level Indianapolis Center
Thu 07:19:15 PM 40.3764 -83.4069 218° Southwest 155 178 4,100  Level Indianapolis Center
Thu 07:19:52 PM 40.3508 -83.4397 224° Southwest 156 180 4,100 97 Level Indianapolis Center
Thu 07:20:17 PM 40.3375 -83.4519 215° Southwest 156 180 4,200  Climbing Indianapolis Center
Thu 07:20:53 PM 40.3169 -83.4739 219° Southwest 156 180 4,100  Descending Indianapolis Center
Thu 07:21:19 PM 40.3042 -83.4892 222° Southwest 157 181 4,200  Climbing Indianapolis Center
Thu 07:21:54 PM 40.2850 -83.5111 221° Southwest 156 180 4,100 -98 Descending Indianapolis Center
Thu 07:22:20 PM 40.2719 -83.5267 222° Southwest 156 180 4,100 -98 Level Indianapolis Center
Thu 07:22:55 PM 40.2528 -83.5508 224° Southwest 156 180 4,000 97 Descending Indianapolis Center
Thu 07:23:22 PM 40.2383 -83.5631 213° Southwest 156 180 4,200 83 Climbing Indianapolis Center
Thu 07:24:07 PM 40.2097 -83.5947 220° Southwest 159 183 4,100 -97 Descending Indianapolis Center
Thu 07:24:24 PM 40.2047 -83.6006 222° Southwest 156 180 4,100  Level Indianapolis Center
Thu 07:25:02 PM 40.1800 -83.6292 221° Southwest 159 183 4,100  Level Indianapolis Center
Thu 07:25:26 PM 40.1711 -83.6392 221° Southwest 158 182 4,100 -98 Level Indianapolis Center
Thu 07:26:03 PM 40.1478 -83.6689 224° Southwest 158 182 4,000  Descending Indianapolis Center
Thu 07:26:28 PM 40.1383 -83.6789 219° Southwest 159 183 4,100 100 Climbing Indianapolis Center
Thu 07:27:03 PM 40.1136 -83.7083 222° Southwest 162 186 4,100  Level Indianapolis Center
Thu 07:27:29 PM 40.1053 -83.7181 222° Southwest 159 183 4,100 -98 Level Indianapolis Center
Thu 07:28:04 PM 40.0794 -83.7447 218° Southwest 160 184 4,000 -97 Descending Indianapolis Center
Thu 07:28:31 PM 40.0656 -83.7622 224° Southwest 160 184 4,000 109 Level Indianapolis Center
Thu 07:28:59 PM 40.0494 -83.7792 219° Southwest 157 181 4,100 97 Climbing Indianapolis Center
Thu 07:29:33 PM 40.0331 -83.8003 225° Southwest 158 182 4,100 -98 Level Indianapolis Center
Thu 07:30:00 PM 40.0172 -83.8186 222° Southwest 159 183 4,000 -97 Descending Indianapolis Center
Thu 07:30:35 PM 39.9989 -83.8381 219° Southwest 159 183 4,000 100 Level Indianapolis Center
Thu 07:31:00 PM 39.9831 -83.8553 220° Southwest 158 182 4,100 97 Climbing Indianapolis Center
Thu 07:31:37 PM 39.9658 -83.8769 224° Southwest 159 183 4,100  Level Indianapolis Center
Thu 07:32:13 PM 39.9419 -83.9017 218° Southwest 160 184 4,100 -98 Level Indianapolis Center
Thu 07:32:38 PM 39.9319 -83.9133 222° Southwest 158 182 4,000  Descending Indianapolis Center
Thu 07:33:02 PM 39.9142 -83.9336 221° Southwest 159 183 4,100 97 Climbing Indianapolis Center
Thu 07:33:40 PM 39.8972 -83.9494 216° Southwest 158 182 4,100  Level Indianapolis Center
Thu 07:34:03 PM 39.8800 -83.9700 222° Southwest 159 183 4,100  Level Indianapolis Center
Thu 07:34:42 PM 39.8639 -83.9892 222° Southwest 160 184 4,100  Level Indianapolis Center
Thu 07:35:03 PM 39.8456 -84.0089 220° Southwest 160 184 4,100  Level Indianapolis Center
Thu 07:35:44 PM 39.8244 -84.0344 223° Southwest 161 185 4,100 -98 Level Indianapolis Center
Thu 07:36:04 PM 39.8133 -84.0481 223° Southwest 162 186 4,000 -97 Descending Indianapolis Center
Thu 07:36:46 PM 39.7900 -84.0722 219° Southwest 161 185 4,000  Level Indianapolis Center
Thu 07:37:47 PM 39.7547 -84.1103 220° Southwest 162 186 4,000 75 Level Indianapolis Center
Thu 07:38:06 PM 39.7425 -84.1231 219° Southwest 163 188 4,100  Climbing Indianapolis Center
Thu 07:38:49 PM 39.7200 -84.1475 220° Southwest 162 186 4,000  Descending Indianapolis Center
Thu 07:39:13 PM 39.7036 -84.1642 218° Southwest 161 185 4,100  Climbing Indianapolis Center
Thu 07:39:51 PM 39.6850 -84.1861 222° Southwest 163 188 4,000 -98 Descending Indianapolis Center
Thu 07:40:14 PM 39.6669 -84.2028 215° Southwest 162 186 4,000  Level Indianapolis Center
Thu 07:40:53 PM 39.6494 -84.2222 221° Southwest 162 186 4,000  Level Indianapolis Center
Thu 07:41:54 PM 39.6142 -84.2592 219° Southwest 161 185 4,000  Level Indianapolis Center
Thu 07:42:56 PM 39.5775 -84.2958 218° Southwest 163 188 4,000  Level Indianapolis Center
Thu 07:43:58 PM 39.5314 -84.3344 213° Southwest 166 191 4,000  Level Indianapolis Center
Thu 07:45:00 PM 39.4808 -84.3353 181° South 178 205 4,000 -48 Level Indianapolis Center
Thu 07:46:02 PM 39.4319 -84.3400 184° South 177 204 3,900 -146 Descending Indianapolis Center
Thu 07:47:03 PM 39.3925 -84.3447 185° South 174 200 3,700 -197 Descending Indianapolis Center
Thu 07:49:00 PM 39.4348 -84.4365 301° West  Level FlightAware Approximate
Thu 07:56:00 PM 39.3638 -84.5219 218° Southwest  Level Estimated
Thu 07:57:00 PM 39.3638 -84.5219 218° Southwest  Level Estimated
Thu 07:58:00 PM 39.3638 -84.5219 218° Southwest  Level Estimated
Thu 07:59:00 PM 39.3638 -84.5219 218° Southwest  Level Estimated

Login

Don't have an account? Register now (free) for customized features, flight alerts, and more!